createdAt,value
2022-10-17T00:01:43.913Z,14.93
2022-10-17T00:04:16.786Z,14.94
2022-10-17T00:06:51.267Z,14.95
2022-10-17T00:09:24.178Z,14.95
2022-10-17T00:11:57.171Z,14.95
2022-10-17T00:14:33.098Z,14.97
2022-10-17T00:17:06.375Z,14.95
2022-10-17T00:19:39.282Z,14.95
2022-10-17T00:22:13.788Z,14.97
2022-10-17T00:24:46.567Z,14.94
2022-10-17T00:27:19.814Z,14.91
2022-10-17T00:29:53.345Z,14.89
2022-10-17T00:32:26.349Z,14.86
2022-10-17T00:34:59.761Z,14.82
2022-10-17T00:37:37.041Z,14.80
2022-10-17T00:40:11.383Z,14.76
2022-10-17T00:42:44.371Z,14.69
2022-10-17T00:45:23.409Z,14.68
2022-10-17T00:48:01.308Z,14.64
2022-10-17T00:50:36.584Z,14.58
2022-10-17T00:53:11.951Z,14.55
2022-10-17T00:55:50.782Z,14.52
2022-10-17T00:58:23.982Z,14.43
2022-10-17T01:00:56.764Z,14.39
2022-10-17T01:03:29.751Z,14.34
2022-10-17T01:06:02.778Z,14.30
2022-10-17T01:08:37.420Z,14.26
2022-10-17T01:11:21.822Z,14.23
2022-10-17T01:13:59.924Z,14.18
2022-10-17T01:16:40.691Z,14.14
2022-10-17T01:19:37.462Z,14.10
2022-10-17T01:22:16.521Z,14.03
2022-10-17T01:25:19.697Z,14.01
2022-10-17T01:28:06.958Z,13.96
2022-10-17T01:31:00.743Z,13.93
2022-10-17T01:33:45.228Z,13.88
2022-10-17T01:36:28.955Z,13.85
2022-10-17T01:39:09.082Z,13.82
2022-10-17T01:41:45.252Z,13.79
2022-10-17T01:44:23.084Z,13.76
2022-10-17T01:47:04.338Z,13.72
2022-10-17T01:49:41.776Z,13.70
2022-10-17T01:52:20.082Z,13.66
2022-10-17T01:54:56.914Z,13.65
2022-10-17T01:57:34.453Z,13.66
2022-10-17T02:00:12.555Z,13.65
2022-10-17T02:02:49.847Z,13.64
2022-10-17T02:05:28.935Z,13.60
2022-10-17T02:08:01.892Z,13.55
2022-10-17T02:10:41.399Z,13.53
2022-10-17T02:13:22.186Z,13.51
2022-10-17T02:16:14.102Z,13.48
2022-10-17T02:19:08.756Z,13.47
2022-10-17T02:21:50.372Z,13.46
2022-10-17T02:24:38.023Z,13.45
2022-10-17T02:27:15.207Z,13.43
2022-10-17T02:29:50.139Z,13.40
2022-10-17T02:32:29.836Z,13.38
2022-10-17T02:35:08.724Z,13.37
2022-10-17T02:37:43.296Z,13.35
2022-10-17T02:40:19.953Z,13.34
2022-10-17T02:42:55.580Z,13.34
2022-10-17T02:45:35.807Z,13.33
2022-10-17T02:48:14.140Z,13.33
2022-10-17T02:51:03.219Z,13.31
2022-10-17T02:53:41.534Z,13.30
2022-10-17T02:56:19.203Z,13.29
2022-10-17T02:58:55.600Z,13.27
2022-10-17T03:01:29.990Z,13.25
2022-10-17T03:04:07.831Z,13.23
2022-10-17T03:06:42.793Z,13.20
2022-10-17T03:09:16.357Z,13.19
2022-10-17T03:11:49.259Z,13.15
2022-10-17T03:14:22.113Z,13.13
2022-10-17T03:16:55.009Z,13.13
2022-10-17T03:19:27.824Z,13.11
2022-10-17T03:22:02.170Z,13.11
2022-10-17T03:24:35.015Z,13.10
2022-10-17T03:27:07.932Z,13.07
2022-10-17T03:29:40.729Z,13.06
2022-10-17T03:32:13.515Z,13.05
2022-10-17T03:34:46.341Z,13.04
2022-10-17T03:37:20.658Z,13.03
2022-10-17T03:39:53.477Z,13.02
2022-10-17T03:42:26.430Z,13.01
2022-10-17T03:44:59.379Z,12.99
2022-10-17T03:47:32.665Z,12.99
2022-10-17T03:50:06.272Z,12.98
2022-10-17T03:52:40.549Z,12.97
2022-10-17T03:55:13.338Z,12.97
2022-10-17T03:57:46.310Z,12.96
2022-10-17T04:00:19.151Z,12.95
2022-10-17T04:02:52.128Z,12.95
2022-10-17T04:05:25.474Z,12.96
2022-10-17T04:08:02.384Z,12.96
2022-10-17T04:10:37.669Z,12.94
2022-10-17T04:13:10.494Z,12.95
2022-10-17T04:15:43.299Z,12.94
2022-10-17T04:18:16.244Z,12.94
2022-10-17T04:20:49.081Z,12.94
2022-10-17T04:23:23.949Z,12.95
2022-10-17T04:25:57.299Z,12.93
2022-10-17T04:28:30.350Z,12.92
2022-10-17T04:31:05.793Z,12.92
2022-10-17T04:33:38.654Z,12.89
2022-10-17T04:36:13.356Z,12.88
2022-10-17T04:38:48.148Z,12.85
2022-10-17T04:41:20.917Z,12.83
2022-10-17T04:43:53.770Z,12.79
2022-10-17T04:46:26.718Z,12.78
2022-10-17T04:48:59.607Z,12.74
2022-10-17T04:51:32.443Z,12.73
2022-10-17T04:54:07.374Z,12.70
2022-10-17T04:56:40.113Z,12.67
2022-10-17T04:59:12.882Z,12.64
2022-10-17T05:01:45.610Z,12.62
2022-10-17T05:04:22.378Z,12.59
2022-10-17T05:06:57.587Z,12.57
2022-10-17T05:09:32.065Z,12.55
2022-10-17T05:12:06.761Z,12.51
2022-10-17T05:14:45.051Z,12.47
2022-10-17T05:17:18.145Z,12.44
2022-10-17T05:19:51.458Z,12.42
2022-10-17T05:22:24.284Z,12.40
2022-10-17T05:24:59.049Z,12.39
2022-10-17T05:27:32.197Z,12.37
2022-10-17T05:30:06.149Z,12.34
2022-10-17T05:32:39.031Z,12.33
2022-10-17T05:35:11.894Z,12.31
2022-10-17T05:37:45.017Z,12.30
2022-10-17T05:40:19.452Z,12.27
2022-10-17T05:42:53.202Z,12.26
2022-10-17T05:45:26.142Z,12.23
2022-10-17T05:47:59.108Z,12.20
2022-10-17T05:50:32.181Z,12.18
2022-10-17T05:53:05.025Z,12.16
2022-10-17T05:55:39.733Z,12.18
2022-10-17T05:58:21.742Z,12.15
2022-10-17T06:00:59.805Z,12.15
2022-10-17T06:03:33.000Z,12.13
2022-10-17T06:06:06.980Z,12.14
2022-10-17T06:08:39.874Z,12.13
2022-10-17T06:11:14.574Z,12.16
2022-10-17T06:13:47.348Z,12.15
2022-10-17T06:16:20.186Z,12.18
2022-10-17T06:18:53.365Z,12.19
2022-10-17T06:21:27.924Z,12.22
2022-10-17T06:24:00.874Z,12.25
2022-10-17T06:26:35.105Z,12.27
2022-10-17T06:29:08.689Z,12.31
2022-10-17T06:31:41.556Z,12.34
2022-10-17T06:34:14.349Z,12.39
2022-10-17T06:36:47.599Z,12.42
2022-10-17T06:39:20.953Z,12.46
2022-10-17T06:41:55.211Z,12.55
2022-10-17T06:44:31.623Z,12.61
2022-10-17T06:47:04.720Z,12.67
2022-10-17T06:49:37.561Z,12.76
2022-10-17T06:52:11.766Z,12.85
2022-10-17T06:54:44.945Z,12.93
2022-10-17T06:57:20.004Z,13.03
2022-10-17T06:59:53.506Z,13.13
2022-10-17T07:02:26.579Z,13.23
2022-10-17T07:04:59.562Z,13.35
2022-10-17T07:07:33.263Z,13.47
2022-10-17T07:10:08.577Z,13.57
2022-10-17T07:12:44.925Z,13.73
2022-10-17T07:15:18.011Z,13.85
2022-10-17T07:17:51.510Z,14.00
2022-10-17T07:20:24.317Z,14.13
2022-10-17T07:22:57.261Z,14.27
2022-10-17T07:25:30.102Z,14.38
2022-10-17T07:28:04.847Z,14.53
2022-10-17T07:30:37.704Z,14.66
2022-10-17T07:33:10.507Z,14.80
2022-10-17T07:35:43.417Z,14.92
2022-10-17T07:38:16.229Z,15.04
2022-10-17T07:40:55.502Z,15.20
2022-10-17T07:43:30.702Z,15.30
2022-10-17T07:46:04.552Z,15.42
2022-10-17T07:48:37.897Z,15.54
2022-10-17T07:51:11.689Z,15.67
2022-10-17T07:53:47.968Z,15.80
2022-10-17T07:56:24.715Z,15.92
2022-10-17T07:59:00.773Z,16.05
2022-10-17T08:01:37.160Z,16.20
2022-10-17T08:04:11.920Z,16.32
2022-10-17T08:06:45.040Z,16.43
2022-10-17T08:09:18.443Z,16.54
2022-10-17T08:11:51.219Z,16.66
2022-10-17T08:14:25.775Z,16.76
2022-10-17T08:16:59.051Z,16.84
2022-10-17T08:19:31.939Z,16.96
2022-10-17T08:22:04.790Z,17.07
2022-10-17T08:24:38.006Z,17.16
2022-10-17T08:27:13.696Z,17.27
2022-10-17T08:29:48.879Z,17.37
2022-10-17T08:32:24.936Z,17.46
2022-10-17T08:34:58.075Z,17.56
2022-10-17T08:37:31.812Z,17.63
2022-10-17T08:40:05.792Z,17.71
2022-10-17T08:42:53.485Z,17.81
2022-10-17T08:45:33.309Z,17.90
2022-10-17T08:48:11.295Z,17.95
2022-10-17T08:50:47.628Z,18.04
2022-10-17T08:53:24.277Z,18.10
2022-10-17T08:55:57.749Z,18.16
2022-10-17T08:58:34.476Z,18.24
2022-10-17T09:01:20.561Z,18.29
2022-10-17T09:04:06.747Z,18.35
2022-10-17T09:06:44.008Z,18.40
2022-10-17T09:09:32.958Z,18.47
2022-10-17T09:12:16.289Z,18.56
2022-10-17T09:15:18.902Z,18.64
2022-10-17T09:17:57.901Z,18.72
2022-10-17T09:20:34.694Z,18.83
2022-10-17T09:23:14.532Z,18.92
2022-10-17T09:25:49.963Z,19.00
2022-10-17T09:28:28.626Z,19.10
2022-10-17T09:31:04.421Z,19.17
2022-10-17T09:33:56.638Z,19.26
2022-10-17T09:36:32.105Z,19.38
2022-10-17T09:39:07.606Z,19.43
2022-10-17T09:41:46.868Z,19.50
2022-10-17T09:44:22.932Z,19.56
2022-10-17T09:47:23.552Z,19.66
2022-10-17T09:49:58.143Z,19.71
2022-10-17T09:52:35.935Z,19.77
2022-10-17T09:55:19.152Z,19.85
2022-10-17T09:57:54.963Z,19.88
2022-10-17T10:00:30.227Z,19.93
2022-10-17T10:03:19.783Z,20.01
2022-10-17T10:06:05.616Z,20.09
2022-10-17T10:08:50.768Z,20.18
2022-10-17T10:11:25.783Z,20.25
2022-10-17T10:14:13.311Z,20.37
2022-10-17T10:16:48.195Z,20.44
2022-10-17T10:19:30.830Z,20.53
2022-10-17T10:22:14.877Z,20.59
2022-10-17T10:24:57.188Z,20.67
2022-10-17T10:27:30.850Z,20.74
2022-10-17T10:30:05.610Z,20.81
2022-10-17T10:32:38.957Z,20.85
2022-10-17T10:35:22.216Z,20.95
2022-10-17T10:37:58.730Z,21.00
2022-10-17T10:40:35.087Z,21.06
2022-10-17T10:43:08.924Z,21.12
2022-10-17T10:45:48.720Z,21.17
2022-10-17T10:48:24.793Z,21.24
2022-10-17T10:50:59.714Z,21.30
2022-10-17T10:53:42.640Z,21.39
2022-10-17T10:56:21.673Z,21.48
2022-10-17T10:58:57.540Z,21.56
2022-10-17T11:01:43.394Z,21.64
2022-10-17T11:04:27.336Z,21.72
2022-10-17T11:07:05.085Z,21.78
2022-10-17T11:09:47.764Z,21.86
2022-10-17T11:12:25.412Z,21.92
2022-10-17T11:15:02.575Z,21.98
2022-10-17T11:17:41.610Z,22.05
2022-10-17T11:20:23.852Z,22.13
2022-10-17T11:23:02.979Z,22.19
2022-10-17T11:25:39.682Z,22.25
2022-10-17T11:28:15.794Z,22.32
2022-10-17T11:30:53.485Z,22.38
2022-10-17T11:33:32.870Z,22.46
2022-10-17T11:36:11.205Z,22.53
2022-10-17T11:38:49.311Z,22.62
2022-10-17T11:41:29.327Z,22.71
2022-10-17T11:44:10.095Z,22.78
2022-10-17T11:46:47.380Z,22.85
2022-10-17T11:52:08.187Z,22.98
2022-10-17T11:54:46.564Z,23.02
2022-10-17T11:57:37.463Z,23.07
2022-10-17T12:00:24.622Z,23.09
2022-10-17T12:03:08.934Z,23.12
2022-10-17T12:05:50.333Z,23.15
2022-10-17T12:08:31.327Z,23.18
2022-10-17T12:11:12.102Z,23.21
2022-10-17T12:13:51.892Z,23.23
2022-10-17T12:16:51.605Z,23.26
2022-10-17T12:19:35.232Z,23.28
2022-10-17T12:22:21.381Z,23.33
2022-10-17T12:24:57.687Z,23.35
2022-10-17T12:27:38.574Z,23.39
2022-10-17T12:30:32.006Z,23.41
2022-10-17T12:33:21.927Z,23.44
2022-10-17T12:36:47.566Z,23.48
2022-10-17T12:39:51.500Z,23.50
2022-10-17T12:42:46.013Z,23.54
2022-10-17T12:45:48.555Z,23.57
2022-10-17T12:49:01.411Z,23.58
2022-10-17T12:52:07.631Z,23.60
2022-10-17T12:54:48.027Z,23.59
2022-10-17T12:57:39.618Z,23.60
2022-10-17T13:00:23.738Z,23.62
2022-10-17T13:03:05.687Z,23.62
2022-10-17T13:05:42.232Z,23.61
2022-10-17T13:08:19.227Z,23.62
2022-10-17T13:10:54.751Z,23.63
2022-10-17T13:13:37.460Z,23.65
2022-10-17T13:16:10.900Z,23.66
2022-10-17T13:18:54.133Z,23.70
2022-10-17T13:21:27.790Z,23.68
2022-10-17T13:24:01.175Z,23.70
2022-10-17T13:26:34.227Z,23.69
2022-10-17T13:29:11.831Z,23.67
2022-10-17T13:31:45.932Z,23.67
2022-10-17T13:34:22.130Z,23.67
2022-10-17T13:36:58.126Z,23.66
2022-10-17T13:39:54.465Z,23.68
2022-10-17T13:42:30.888Z,23.67
2022-10-17T13:45:05.479Z,23.66
2022-10-17T13:47:40.411Z,23.65
2022-10-17T13:50:44.135Z,23.67
2022-10-17T13:53:21.546Z,23.65
2022-10-17T13:56:22.965Z,23.64
2022-10-17T13:58:53.868Z,23.64
2022-10-17T14:01:29.302Z,23.63
2022-10-17T14:04:09.226Z,23.62
2022-10-17T14:06:49.297Z,23.64
2022-10-17T14:09:26.638Z,23.65
2022-10-17T14:12:04.631Z,23.67
2022-10-17T14:14:58.393Z,23.67
2022-10-17T14:17:32.852Z,23.68
2022-10-17T14:20:40.790Z,23.68
2022-10-17T14:23:21.858Z,23.68
2022-10-17T14:26:23.089Z,23.67
2022-10-17T14:29:06.149Z,23.66
2022-10-17T14:31:40.027Z,23.61
2022-10-17T14:34:24.911Z,23.59
2022-10-17T14:36:57.953Z,23.56
2022-10-17T14:39:32.206Z,23.52
2022-10-17T14:42:05.149Z,23.49
2022-10-17T14:44:38.040Z,23.44
2022-10-17T14:47:42.287Z,23.44
2022-10-17T14:50:23.878Z,23.40
2022-10-17T14:53:06.061Z,23.37
2022-10-17T14:55:55.670Z,23.34
2022-10-17T14:58:29.963Z,23.29
2022-10-17T15:01:03.642Z,23.26
2022-10-17T15:03:36.599Z,23.23
2022-10-17T15:06:19.362Z,23.22
2022-10-17T15:08:52.224Z,23.18
2022-10-17T15:11:26.429Z,23.15
2022-10-17T15:13:59.317Z,23.12
2022-10-17T15:16:33.768Z,23.09
2022-10-17T15:19:06.613Z,23.05
2022-10-17T15:21:43.372Z,23.04
2022-10-17T15:24:19.824Z,22.99
2022-10-17T15:29:32.746Z,22.91
2022-10-17T15:32:05.704Z,22.88
2022-10-17T15:34:39.194Z,22.85
2022-10-17T15:37:20.948Z,22.84
2022-10-17T15:39:55.947Z,22.80
2022-10-17T15:42:31.437Z,22.77
2022-10-17T15:45:04.816Z,22.72
2022-10-17T15:47:38.213Z,22.64
2022-10-17T15:50:14.691Z,22.64
2022-10-17T15:52:47.776Z,22.57
2022-10-17T15:55:21.331Z,22.53
2022-10-17T15:57:56.096Z,22.49
2022-10-17T16:00:29.118Z,22.42
2022-10-17T16:03:01.974Z,22.38
2022-10-17T16:05:34.845Z,22.29
2022-10-17T16:08:07.676Z,22.20
2022-10-17T16:10:41.689Z,22.11
2022-10-17T16:13:18.989Z,22.04
2022-10-17T16:15:51.926Z,21.93
2022-10-17T16:18:24.724Z,21.85
2022-10-17T16:20:57.736Z,21.74
2022-10-17T16:23:30.561Z,21.64
2022-10-17T16:26:03.360Z,21.54
2022-10-17T16:28:39.523Z,21.43
2022-10-17T16:31:21.207Z,21.31
2022-10-17T16:33:55.969Z,21.18
2022-10-17T16:36:29.298Z,21.05
2022-10-17T16:39:02.437Z,20.94
2022-10-17T16:41:37.189Z,20.83
2022-10-17T16:44:14.573Z,20.73
2022-10-17T16:46:47.441Z,20.59
2022-10-17T16:49:20.207Z,20.46
2022-10-17T16:51:53.165Z,20.34
2022-10-17T16:54:25.932Z,20.23
2022-10-17T16:56:58.838Z,20.11
2022-10-17T16:59:32.979Z,20.00
2022-10-17T17:02:06.340Z,19.88
2022-10-17T17:04:39.133Z,19.78
2022-10-17T17:07:12.778Z,19.66
2022-10-17T17:09:45.568Z,19.55
2022-10-17T17:12:18.435Z,19.46
2022-10-17T17:14:52.624Z,19.39
2022-10-17T17:17:36.877Z,19.27
2022-10-17T17:20:10.538Z,19.17
2022-10-17T17:22:43.419Z,19.09
2022-10-17T17:25:16.333Z,19.00
2022-10-17T17:27:49.438Z,18.91
2022-10-17T17:30:23.703Z,18.83
2022-10-17T17:32:56.875Z,18.74
2022-10-17T17:35:30.652Z,18.67
2022-10-17T17:38:04.706Z,18.60
2022-10-17T17:40:37.629Z,18.57
2022-10-17T17:43:10.448Z,18.50
2022-10-17T17:45:44.765Z,18.44
2022-10-17T17:48:17.801Z,18.37
2022-10-17T17:50:50.631Z,18.30
2022-10-17T17:53:23.707Z,18.23
2022-10-17T17:56:03.767Z,18.18
2022-10-17T17:58:36.917Z,18.10
2022-10-17T18:01:15.070Z,18.05
2022-10-17T18:03:49.339Z,17.98
2022-10-17T18:06:23.877Z,17.95
2022-10-17T18:08:58.958Z,17.92
2022-10-17T18:11:32.135Z,17.87
2022-10-17T18:14:06.837Z,17.86
2022-10-17T18:16:41.283Z,17.83
2022-10-17T18:19:14.218Z,17.80
2022-10-17T18:21:47.073Z,17.77
2022-10-17T18:24:20.293Z,17.74
2022-10-17T18:26:56.093Z,17.70
2022-10-17T18:29:29.811Z,17.68
2022-10-17T18:32:03.995Z,17.65
2022-10-17T18:34:36.822Z,17.60
2022-10-17T18:37:09.860Z,17.56
2022-10-17T18:39:42.715Z,17.53
2022-10-17T18:42:15.733Z,17.48
2022-10-17T18:44:48.930Z,17.45
2022-10-17T18:47:23.071Z,17.43
2022-10-17T18:49:55.974Z,17.39
2022-10-17T18:52:28.981Z,17.37
2022-10-17T18:55:01.980Z,17.34
2022-10-17T18:57:34.803Z,17.33
2022-10-17T19:00:09.341Z,17.31
2022-10-17T19:02:43.562Z,17.29
2022-10-17T19:05:16.808Z,17.28
2022-10-17T19:07:50.290Z,17.27
2022-10-17T19:10:23.132Z,17.25
2022-10-17T19:12:55.993Z,17.26
2022-10-17T19:15:29.167Z,17.26
2022-10-17T19:18:04.048Z,17.25
2022-10-17T19:20:36.915Z,17.22
2022-10-17T19:23:09.753Z,17.19
2022-10-17T19:25:42.576Z,17.18
2022-10-17T19:28:15.419Z,17.16
2022-10-17T19:30:48.232Z,17.13
2022-10-17T19:33:22.468Z,17.12
2022-10-17T19:35:58.958Z,17.14
2022-10-17T19:38:32.185Z,17.13
2022-10-17T19:41:08.648Z,17.12
2022-10-17T19:43:42.943Z,17.09
2022-10-17T19:46:18.379Z,17.07
2022-10-17T19:48:53.416Z,17.07
2022-10-17T19:51:27.043Z,17.05
2022-10-17T19:54:02.028Z,17.03
2022-10-17T19:56:37.776Z,17.02
2022-10-17T19:59:13.048Z,17.02
2022-10-17T20:01:48.453Z,17.03
2022-10-17T20:04:28.245Z,17.05
2022-10-17T20:07:01.440Z,17.03
2022-10-17T20:09:34.374Z,17.01
2022-10-17T20:12:07.504Z,17.02
2022-10-17T20:14:41.257Z,17.04
2022-10-17T20:17:14.573Z,17.05
2022-10-17T20:19:48.851Z,17.07
2022-10-17T20:22:21.934Z,17.08
2022-10-17T20:24:54.753Z,17.08
2022-10-17T20:27:27.967Z,17.09
2022-10-17T20:30:01.942Z,17.08
2022-10-17T20:32:39.478Z,17.06
2022-10-17T20:35:13.998Z,17.06
2022-10-17T20:37:46.775Z,17.03
2022-10-17T20:40:35.881Z,17.00
2022-10-17T20:43:09.545Z,17.01
2022-10-17T20:45:51.549Z,17.00
2022-10-17T20:48:25.139Z,16.96
2022-10-17T20:50:59.337Z,16.96
2022-10-17T20:53:43.256Z,16.92
2022-10-17T20:56:20.273Z,16.91
2022-10-17T20:58:55.310Z,16.87
2022-10-17T21:01:29.455Z,16.83
2022-10-17T21:04:26.890Z,16.82
2022-10-17T21:06:58.449Z,16.79
2022-10-17T21:09:31.289Z,16.74
2022-10-17T21:12:05.372Z,16.74
2022-10-17T21:14:38.550Z,16.70
2022-10-17T21:17:11.355Z,16.68
2022-10-17T21:19:44.193Z,16.68
2022-10-17T21:22:18.798Z,16.66
2022-10-17T21:24:51.612Z,16.65
2022-10-17T21:27:24.469Z,16.63
2022-10-17T21:29:57.468Z,16.62
2022-10-17T21:32:40.393Z,16.62
2022-10-17T21:35:20.378Z,16.60
2022-10-17T21:37:54.579Z,16.59
2022-10-17T21:40:27.522Z,16.57
2022-10-17T21:43:00.351Z,16.55
2022-10-17T21:45:33.189Z,16.51
2022-10-17T21:48:13.744Z,16.50
2022-10-17T21:50:46.623Z,16.46
2022-10-17T21:53:22.116Z,16.45
2022-10-17T21:55:55.105Z,16.40
2022-10-17T21:58:28.856Z,16.38
2022-10-17T22:01:06.977Z,16.37
2022-10-17T22:03:44.212Z,16.33
2022-10-17T22:09:19.044Z,16.28
2022-10-17T22:11:54.293Z,16.23
2022-10-17T22:14:28.544Z,16.20
2022-10-17T22:17:01.670Z,16.17
2022-10-17T22:19:34.564Z,16.14
2022-10-17T22:22:07.433Z,16.10
2022-10-17T22:24:41.937Z,16.07
2022-10-17T22:27:14.923Z,16.01
2022-10-17T22:29:47.852Z,15.97
2022-10-17T22:32:22.567Z,15.94
2022-10-17T22:34:55.595Z,15.90
2022-10-17T22:37:28.701Z,15.88
2022-10-17T22:40:03.141Z,15.84
2022-10-17T22:42:36.719Z,15.81
2022-10-17T22:45:10.341Z,15.79
2022-10-17T22:47:43.551Z,15.74
2022-10-17T22:50:16.603Z,15.70
2022-10-17T22:52:49.525Z,15.68
2022-10-17T22:55:23.708Z,15.65
2022-10-17T22:57:56.602Z,15.60
2022-10-17T23:03:07.419Z,15.55
2022-10-17T23:05:40.298Z,15.53
2022-10-17T23:08:13.558Z,15.49
2022-10-17T23:10:48.829Z,15.44
2022-10-17T23:13:22.045Z,15.38
2022-10-17T23:15:57.043Z,15.35
2022-10-17T23:21:03.625Z,15.29
2022-10-17T23:23:37.542Z,15.25
2022-10-17T23:26:13.959Z,15.24
2022-10-17T23:28:46.947Z,15.21
2022-10-17T23:31:21.239Z,15.20
2022-10-17T23:33:54.313Z,15.17
2022-10-17T23:36:27.209Z,15.16
2022-10-17T23:39:00.235Z,15.15
2022-10-17T23:41:35.055Z,15.14
2022-10-17T23:44:07.890Z,15.13
2022-10-17T23:46:41.039Z,15.13
2022-10-17T23:49:14.014Z,15.12
2022-10-17T23:51:46.812Z,15.10
2022-10-17T23:54:19.896Z,15.08
2022-10-17T23:56:54.104Z,15.08
2022-10-17T23:59:26.999Z,15.07
